createdAt,value
2022-10-09T00:00:13.609Z,331.76
2022-10-09T00:01:13.616Z,340.24
2022-10-09T00:02:13.647Z,5.65
2022-10-09T00:03:13.637Z,302.12
2022-10-09T00:04:13.617Z,4.24
2022-10-09T00:05:13.705Z,316.24
2022-10-09T00:06:13.610Z,330.35
2022-10-09T00:07:13.628Z,312
2022-10-09T00:08:13.623Z,344.47
2022-10-09T00:09:13.616Z,317.65
2022-10-09T00:10:13.622Z,303.53
2022-10-09T00:11:13.618Z,317.65
2022-10-09T00:12:13.620Z,296.47
2022-10-09T00:13:13.629Z,348.71
2022-10-09T00:14:13.628Z,15.53
2022-10-09T00:15:13.626Z,337.41
2022-10-09T00:16:13.632Z,336
2022-10-09T00:17:13.627Z,310.59
2022-10-09T00:18:13.636Z,333.18
2022-10-09T00:19:13.655Z,351.53
2022-10-09T00:20:13.630Z,331.76
2022-10-09T00:21:13.632Z,327.53
2022-10-09T00:22:13.619Z,321.88
2022-10-09T00:23:13.632Z,324.71
2022-10-09T00:24:13.633Z,316.24
2022-10-09T00:25:13.633Z,307.76
2022-10-09T00:26:13.630Z,304.94
2022-10-09T00:27:13.628Z,306.35
2022-10-09T00:28:13.669Z,309.18
2022-10-09T00:29:13.630Z,299.29
2022-10-09T00:30:13.633Z,333.18
2022-10-09T00:31:13.722Z,303.53
2022-10-09T00:32:13.627Z,306.35
2022-10-09T00:33:13.620Z,331.76
2022-10-09T00:34:13.636Z,352.94
2022-10-09T00:35:13.656Z,303.53
2022-10-09T00:36:13.631Z,306.35
2022-10-09T00:37:13.629Z,309.18
2022-10-09T00:38:13.623Z,324.71
2022-10-09T00:39:13.621Z,357.18
2022-10-09T00:40:13.633Z,316.24
2022-10-09T00:41:13.638Z,323.29
2022-10-09T00:42:13.633Z,302.12
2022-10-09T00:43:13.634Z,348.71
2022-10-09T00:44:13.628Z,330.35
2022-10-09T00:45:13.635Z,330.35
2022-10-09T00:46:13.689Z,7.06
2022-10-09T00:47:13.631Z,337.41
2022-10-09T00:48:13.637Z,309.18
2022-10-09T00:49:13.642Z,14.12
2022-10-09T00:50:13.636Z,22.59
2022-10-09T00:51:13.657Z,14.12
2022-10-09T00:52:13.642Z,1.41
2022-10-09T00:53:13.629Z,19.76
2022-10-09T00:54:13.630Z,12.71
2022-10-09T00:55:13.645Z,354.35
2022-10-09T00:56:13.641Z,360
2022-10-09T00:57:13.637Z,338.82
2022-10-09T00:58:13.644Z,14.12
2022-10-09T00:59:13.646Z,16.94
2022-10-09T01:00:13.646Z,21.18
2022-10-09T01:01:13.658Z,343.06
2022-10-09T01:02:13.711Z,343.06
2022-10-09T01:03:13.644Z,9.88
2022-10-09T01:04:13.656Z,360
2022-10-09T01:05:13.649Z,360
2022-10-09T01:06:13.655Z,8.47
2022-10-09T01:07:13.669Z,7.06
2022-10-09T01:08:13.657Z,11.29
2022-10-09T01:09:13.648Z,55.06
2022-10-09T01:10:13.649Z,16.94
2022-10-09T01:11:13.653Z,345.88
2022-10-09T01:12:13.658Z,360
2022-10-09T01:13:13.651Z,345.88
2022-10-09T01:14:13.651Z,16.94
2022-10-09T01:15:13.660Z,5.65
2022-10-09T01:16:13.694Z,312
2022-10-09T01:17:13.658Z,333.18
2022-10-09T01:18:13.656Z,327.53
2022-10-09T01:19:13.660Z,341.65
2022-10-09T01:20:13.656Z,317.65
2022-10-09T01:21:13.657Z,314.82
2022-10-09T01:22:13.662Z,312
2022-10-09T01:23:13.676Z,328.94
2022-10-09T01:24:13.662Z,14.12
2022-10-09T01:25:13.665Z,352.94
2022-10-09T01:26:13.653Z,324.71
2022-10-09T01:27:13.660Z,2.82
2022-10-09T01:28:13.699Z,360
2022-10-09T01:29:13.657Z,314.82
2022-10-09T01:30:13.665Z,307.76
2022-10-09T01:31:13.728Z,334.59
2022-10-09T01:32:13.666Z,314.82
2022-10-09T01:33:13.663Z,324.71
2022-10-09T01:34:13.651Z,337.41
2022-10-09T01:35:13.662Z,333.18
2022-10-09T01:36:13.664Z,8.47
2022-10-09T01:37:13.658Z,352.94
2022-10-09T01:38:13.657Z,22.59
2022-10-09T01:39:13.684Z,14.12
2022-10-09T01:40:13.667Z,24
2022-10-09T01:41:13.680Z,354.35
2022-10-09T01:42:13.670Z,354.35
2022-10-09T01:43:13.676Z,8.47
2022-10-09T01:44:13.683Z,9.88
2022-10-09T01:45:13.677Z,360
2022-10-09T01:46:13.745Z,31.06
2022-10-09T01:47:13.676Z,45.18
2022-10-09T01:48:13.682Z,26.82
2022-10-09T01:49:13.675Z,360
2022-10-09T01:50:13.696Z,45.18
2022-10-09T01:51:13.684Z,327.53
2022-10-09T01:52:13.686Z,336
2022-10-09T01:53:13.683Z,347.29
2022-10-09T01:54:13.683Z,360
2022-10-09T01:55:13.705Z,26.82
2022-10-09T01:56:13.683Z,42.35
2022-10-09T01:57:13.687Z,21.18
2022-10-09T01:58:13.679Z,22.59
2022-10-09T01:59:15.961Z,29.65
2022-10-09T02:00:13.685Z,8.47
2022-10-09T02:01:13.752Z,5.65
2022-10-09T02:02:13.867Z,326.12
2022-10-09T02:03:13.700Z,357.18
2022-10-09T02:04:13.688Z,8.47
2022-10-09T02:05:13.695Z,1.41
2022-10-09T02:06:13.692Z,21.18
2022-10-09T02:07:13.703Z,18.35
2022-10-09T02:08:13.706Z,50.82
2022-10-09T02:09:13.698Z,50.82
2022-10-09T02:10:13.701Z,50.82
2022-10-09T02:11:13.719Z,320.47
2022-10-09T02:12:13.701Z,299.29
2022-10-09T02:13:13.705Z,295.06
2022-10-09T02:14:13.704Z,295.06
2022-10-09T02:15:13.704Z,295.06
2022-10-09T02:16:13.773Z,295.06
2022-10-09T02:17:13.714Z,343.06
2022-10-09T02:18:13.701Z,328.94
2022-10-09T02:19:13.711Z,338.82
2022-10-09T02:20:13.734Z,347.29
2022-10-09T02:21:13.714Z,313.41
2022-10-09T02:22:13.715Z,300.71
2022-10-09T02:23:13.718Z,280.94
2022-10-09T02:24:13.714Z,303.53
2022-10-09T02:25:13.707Z,331.76
2022-10-09T02:26:13.714Z,317.65
2022-10-09T02:27:13.736Z,11.29
2022-10-09T02:28:13.766Z,343.06
2022-10-09T02:29:13.717Z,341.65
2022-10-09T02:30:13.718Z,295.06
2022-10-09T02:31:13.791Z,306.35
2022-10-09T02:32:13.730Z,307.76
2022-10-09T02:33:13.730Z,312
2022-10-09T02:34:13.726Z,304.94
2022-10-09T02:35:13.734Z,312
2022-10-09T02:36:13.737Z,309.18
2022-10-09T02:37:13.737Z,330.35
2022-10-09T02:38:13.734Z,341.65
2022-10-09T02:39:13.746Z,334.59
2022-10-09T02:40:13.739Z,319.06
2022-10-09T02:41:13.739Z,289.41
2022-10-09T02:42:13.744Z,328.94
2022-10-09T02:43:13.760Z,303.53
2022-10-09T02:44:13.748Z,328.94
2022-10-09T02:45:13.745Z,360
2022-10-09T02:46:13.786Z,333.18
2022-10-09T02:47:13.742Z,354.35
2022-10-09T02:48:13.755Z,352.94
2022-10-09T02:49:13.750Z,354.35
2022-10-09T02:50:13.748Z,351.53
2022-10-09T02:51:13.745Z,323.29
2022-10-09T02:52:13.748Z,323.29
2022-10-09T02:53:13.750Z,292.24
2022-10-09T02:54:13.742Z,312
2022-10-09T02:55:13.758Z,269.65
2022-10-09T02:56:13.750Z,340.24
2022-10-09T02:57:13.754Z,323.29
2022-10-09T02:58:13.768Z,317.65
2022-10-09T02:59:13.771Z,12.71
2022-10-09T03:00:13.755Z,344.47
2022-10-09T03:01:13.763Z,177.88
2022-10-09T03:02:13.931Z,360
2022-10-09T03:03:13.763Z,295.06
2022-10-09T03:04:13.758Z,303.53
2022-10-09T03:05:13.760Z,313.41
2022-10-09T03:06:13.783Z,303.53
2022-10-09T03:07:13.772Z,303.53
2022-10-09T03:08:13.775Z,303.53
2022-10-09T03:09:13.782Z,293.65
2022-10-09T03:10:13.800Z,299.29
2022-10-09T03:11:13.788Z,283.76
2022-10-09T03:12:13.784Z,285.18
2022-10-09T03:13:13.777Z,278.12
2022-10-09T03:14:13.776Z,283.76
2022-10-09T03:15:13.801Z,272.47
2022-10-09T03:16:13.829Z,276.71
2022-10-09T03:17:13.792Z,275.29
2022-10-09T03:18:13.774Z,269.65
2022-10-09T03:19:13.772Z,268.24
2022-10-09T03:20:13.772Z,265.41
2022-10-09T03:21:13.780Z,272.47
2022-10-09T03:22:13.779Z,264
2022-10-09T03:23:13.781Z,258.35
2022-10-09T03:24:13.780Z,266.82
2022-10-09T03:25:13.775Z,273.88
2022-10-09T03:26:13.787Z,276.71
2022-10-09T03:27:13.782Z,295.06
2022-10-09T03:28:13.827Z,307.76
2022-10-09T03:29:13.795Z,304.94
2022-10-09T03:30:13.796Z,271.06
2022-10-09T03:31:27.605Z,288
2022-10-09T03:32:13.794Z,302.12
2022-10-09T03:33:13.787Z,309.18
2022-10-09T03:34:13.783Z,324.71
2022-10-09T03:35:13.786Z,323.29
2022-10-09T03:36:13.800Z,345.88
2022-10-09T03:37:13.797Z,340.24
2022-10-09T03:38:13.793Z,355.76
2022-10-09T03:39:13.800Z,316.24
2022-10-09T03:40:13.796Z,330.35
2022-10-09T03:41:13.797Z,330.35
2022-10-09T03:42:13.803Z,338.82
2022-10-09T03:43:13.792Z,300.71
2022-10-09T03:44:13.802Z,312
2022-10-09T03:45:13.810Z,295.06
2022-10-09T03:46:13.846Z,288
2022-10-09T03:47:13.822Z,317.65
2022-10-09T03:48:13.811Z,296.47
2022-10-09T03:49:13.807Z,300.71
2022-10-09T03:50:13.802Z,303.53
2022-10-09T03:51:13.815Z,293.65
2022-10-09T03:52:13.813Z,304.94
2022-10-09T03:53:13.814Z,293.65
2022-10-09T03:54:13.821Z,295.06
2022-10-09T03:55:13.809Z,302.12
2022-10-09T03:56:13.818Z,292.24
2022-10-09T03:57:13.817Z,295.06
2022-10-09T03:58:13.805Z,297.88
2022-10-09T03:59:13.821Z,297.88
2022-10-09T04:00:13.816Z,285.18
2022-10-09T04:01:13.900Z,297.88
2022-10-09T04:02:13.849Z,293.65
2022-10-09T04:03:13.838Z,295.06
2022-10-09T04:04:13.820Z,288
2022-10-09T04:05:13.826Z,292.24
2022-10-09T04:06:13.827Z,282.35
2022-10-09T04:07:13.823Z,283.76
2022-10-09T04:08:13.828Z,306.35
2022-10-09T04:09:13.834Z,283.76
2022-10-09T04:10:13.836Z,300.71
2022-10-09T04:11:13.836Z,297.88
2022-10-09T04:12:13.827Z,326.12
2022-10-09T04:13:13.833Z,266.82
2022-10-09T04:14:13.829Z,283.76
2022-10-09T04:15:13.829Z,296.47
2022-10-09T04:16:13.848Z,300.71
2022-10-09T04:17:13.828Z,320.47
2022-10-09T04:18:13.834Z,304.94
2022-10-09T04:19:13.865Z,300.71
2022-10-09T04:20:13.838Z,303.53
2022-10-09T04:21:13.832Z,292.24
2022-10-09T04:22:13.829Z,313.41
2022-10-09T04:23:13.839Z,296.47
2022-10-09T04:24:13.834Z,303.53
2022-10-09T04:25:13.837Z,358.59
2022-10-09T04:26:13.850Z,295.06
2022-10-09T04:27:13.840Z,350.12
2022-10-09T04:28:13.897Z,279.53
2022-10-09T04:29:13.835Z,282.35
2022-10-09T04:30:13.845Z,283.76
2022-10-09T04:31:13.849Z,310.59
2022-10-09T04:32:13.844Z,303.53
2022-10-09T04:33:13.850Z,296.47
2022-10-09T04:34:13.847Z,16.94
2022-10-09T04:35:13.872Z,317.65
2022-10-09T04:36:13.849Z,317.65
2022-10-09T04:37:13.841Z,317.65
2022-10-09T04:38:13.850Z,317.65
2022-10-09T04:39:13.855Z,317.65
2022-10-09T04:40:13.852Z,317.65
2022-10-09T04:41:13.855Z,317.65
2022-10-09T04:42:13.845Z,317.65
2022-10-09T04:43:13.855Z,317.65
2022-10-09T04:44:13.851Z,317.65
2022-10-09T04:45:13.859Z,317.65
2022-10-09T04:46:13.939Z,317.65
2022-10-09T04:47:13.845Z,317.65
2022-10-09T04:48:13.860Z,317.65
2022-10-09T04:49:13.851Z,317.65
2022-10-09T04:50:13.860Z,317.65
2022-10-09T04:51:13.876Z,317.65
2022-10-09T04:52:13.875Z,317.65
2022-10-09T04:53:13.856Z,317.65
2022-10-09T04:54:13.850Z,317.65
2022-10-09T04:55:13.863Z,317.65
2022-10-09T04:56:13.849Z,317.65
2022-10-09T04:57:13.866Z,300.71
2022-10-09T04:58:13.872Z,358.59
2022-10-09T04:59:13.864Z,352.94
2022-10-09T05:00:13.869Z,357.18
2022-10-09T05:01:13.886Z,360
2022-10-09T05:02:13.880Z,358.59
2022-10-09T05:03:13.853Z,330.35
2022-10-09T05:04:13.862Z,341.65
2022-10-09T05:05:13.868Z,314.82
2022-10-09T05:06:13.865Z,348.71
2022-10-09T05:07:13.882Z,15.53
2022-10-09T05:08:13.872Z,324.71
2022-10-09T05:09:13.871Z,324.71
2022-10-09T05:10:13.857Z,324.71
2022-10-09T05:11:13.868Z,324.71
2022-10-09T05:12:13.860Z,324.71
2022-10-09T05:13:13.868Z,324.71
2022-10-09T05:14:13.872Z,324.71
2022-10-09T05:15:13.869Z,324.71
2022-10-09T05:16:13.953Z,314.82
2022-10-09T05:17:14.875Z,302.12
2022-10-09T05:18:13.864Z,302.12
2022-10-09T05:19:13.868Z,352.94
2022-10-09T05:20:13.871Z,333.18
2022-10-09T05:21:13.876Z,333.18
2022-10-09T05:22:13.875Z,333.18
2022-10-09T05:23:13.887Z,333.18
2022-10-09T05:24:13.867Z,333.18
2022-10-09T05:25:13.867Z,333.18
2022-10-09T05:26:13.860Z,333.18
2022-10-09T05:27:13.867Z,333.18
2022-10-09T05:28:13.937Z,333.18
2022-10-09T05:29:13.881Z,333.18
2022-10-09T05:30:13.876Z,333.18
2022-10-09T05:31:13.925Z,333.18
2022-10-09T05:32:13.880Z,333.18
2022-10-09T05:33:13.872Z,333.18
2022-10-09T05:34:13.873Z,333.18
2022-10-09T05:35:13.871Z,333.18
2022-10-09T05:36:13.881Z,333.18
2022-10-09T05:37:13.871Z,333.18
2022-10-09T05:38:13.879Z,333.18
2022-10-09T05:39:14.002Z,333.18
2022-10-09T05:40:13.883Z,333.18
2022-10-09T05:41:13.886Z,333.18
2022-10-09T05:42:13.874Z,333.18
2022-10-09T05:43:13.887Z,333.18
2022-10-09T05:44:13.892Z,333.18
2022-10-09T05:45:13.884Z,333.18
2022-10-09T05:46:13.911Z,333.18
2022-10-09T05:47:13.888Z,333.18
2022-10-09T05:48:13.885Z,333.18
2022-10-09T05:49:13.889Z,333.18
2022-10-09T05:50:13.887Z,333.18
2022-10-09T05:51:13.900Z,333.18
2022-10-09T05:52:13.887Z,333.18
2022-10-09T05:53:13.887Z,333.18
2022-10-09T05:54:13.895Z,333.18
2022-10-09T05:55:13.916Z,333.18
2022-10-09T05:56:13.899Z,333.18
2022-10-09T05:57:13.892Z,333.18
2022-10-09T05:58:13.893Z,333.18
2022-10-09T05:59:13.898Z,333.18
2022-10-09T06:00:14.014Z,333.18
2022-10-09T06:01:13.966Z,333.18
2022-10-09T06:02:13.931Z,333.18
2022-10-09T06:03:13.892Z,333.18
2022-10-09T06:04:13.904Z,333.18
2022-10-09T06:05:13.907Z,333.18
2022-10-09T06:06:13.904Z,333.18
2022-10-09T06:07:13.897Z,333.18
2022-10-09T06:08:13.916Z,333.18
2022-10-09T06:09:13.900Z,333.18
2022-10-09T06:10:13.906Z,333.18
2022-10-09T06:11:13.933Z,333.18
2022-10-09T06:12:13.913Z,333.18
2022-10-09T06:13:13.906Z,333.18
2022-10-09T06:14:13.904Z,333.18
2022-10-09T06:15:13.903Z,333.18
2022-10-09T06:16:13.988Z,333.18
2022-10-09T06:17:13.906Z,333.18
2022-10-09T06:18:13.905Z,333.18
2022-10-09T06:19:13.902Z,333.18
2022-10-09T06:20:13.917Z,333.18
2022-10-09T06:21:13.925Z,333.18
2022-10-09T06:22:13.917Z,333.18
2022-10-09T06:23:13.910Z,333.18
2022-10-09T06:24:13.921Z,333.18
2022-10-09T06:25:13.913Z,333.18
2022-10-09T06:26:13.915Z,333.18
2022-10-09T06:27:13.937Z,333.18
2022-10-09T06:28:13.943Z,333.18
2022-10-09T06:29:13.915Z,333.18
2022-10-09T06:30:13.908Z,333.18
2022-10-09T06:31:13.995Z,333.18
2022-10-09T06:32:13.923Z,333.18
2022-10-09T06:33:13.919Z,333.18
2022-10-09T06:34:13.917Z,333.18
2022-10-09T06:35:13.924Z,333.18
2022-10-09T06:36:13.920Z,333.18
2022-10-09T06:37:13.922Z,333.18
2022-10-09T06:38:13.923Z,333.18
2022-10-09T06:39:13.920Z,333.18
2022-10-09T06:40:13.979Z,333.18
2022-10-09T06:41:13.928Z,333.18
2022-10-09T06:42:13.927Z,333.18
2022-10-09T06:43:13.946Z,333.18
2022-10-09T06:44:16.483Z,333.18
2022-10-09T06:45:13.929Z,333.18
2022-10-09T06:46:13.965Z,333.18
2022-10-09T06:47:13.933Z,333.18
2022-10-09T06:48:13.928Z,333.18
2022-10-09T06:49:13.929Z,333.18
2022-10-09T06:50:13.935Z,333.18
2022-10-09T06:51:13.941Z,333.18
2022-10-09T06:52:13.935Z,333.18
2022-10-09T06:53:13.935Z,333.18
2022-10-09T06:54:13.946Z,333.18
2022-10-09T06:55:13.937Z,333.18
2022-10-09T06:56:13.930Z,333.18
2022-10-09T06:57:13.932Z,333.18
2022-10-09T06:58:13.936Z,333.18
2022-10-09T06:59:13.959Z,333.18
2022-10-09T07:00:13.941Z,333.18
2022-10-09T07:01:13.976Z,333.18
2022-10-09T07:02:13.967Z,333.18
2022-10-09T07:03:13.987Z,333.18
2022-10-09T07:04:13.936Z,333.18
2022-10-09T07:05:13.950Z,333.18
2022-10-09T07:06:13.933Z,333.18
2022-10-09T07:07:13.942Z,333.18
2022-10-09T07:08:13.947Z,333.18
2022-10-09T07:09:13.956Z,333.18
2022-10-09T07:10:13.938Z,333.18
2022-10-09T07:11:13.944Z,333.18
2022-10-09T07:12:13.943Z,333.18
2022-10-09T07:13:13.933Z,333.18
2022-10-09T07:14:13.945Z,333.18
2022-10-09T07:15:13.967Z,333.18
2022-10-09T07:16:13.997Z,333.18
2022-10-09T07:17:13.943Z,333.18
2022-10-09T07:18:13.943Z,333.18
2022-10-09T07:19:13.954Z,333.18
2022-10-09T07:20:13.947Z,333.18
2022-10-09T07:21:13.947Z,333.18
2022-10-09T07:22:13.941Z,333.18
2022-10-09T07:23:13.938Z,333.18
2022-10-09T07:24:13.949Z,333.18
2022-10-09T07:25:13.948Z,333.18
2022-10-09T07:26:13.947Z,333.18
2022-10-09T07:27:13.947Z,333.18
2022-10-09T07:28:13.981Z,333.18
2022-10-09T07:29:13.943Z,333.18
2022-10-09T07:30:13.952Z,333.18
2022-10-09T07:31:14.054Z,333.18
2022-10-09T07:32:13.956Z,333.18
2022-10-09T07:33:13.951Z,333.18
2022-10-09T07:34:13.943Z,333.18
2022-10-09T07:35:13.947Z,333.18
2022-10-09T07:36:13.945Z,333.18
2022-10-09T07:37:13.949Z,333.18
2022-10-09T07:38:13.952Z,333.18
2022-10-09T07:39:13.958Z,333.18
2022-10-09T07:40:13.953Z,333.18
2022-10-09T07:41:13.961Z,333.18
2022-10-09T07:42:13.957Z,333.18
2022-10-09T07:43:13.944Z,333.18
2022-10-09T07:44:13.949Z,333.18
2022-10-09T07:45:13.955Z,333.18
2022-10-09T07:46:14.026Z,333.18
2022-10-09T07:47:13.979Z,333.18
2022-10-09T07:48:13.963Z,333.18
2022-10-09T07:49:13.959Z,333.18
2022-10-09T07:50:13.951Z,333.18
2022-10-09T07:51:13.963Z,333.18
2022-10-09T07:52:13.958Z,333.18
2022-10-09T07:53:13.970Z,333.18
2022-10-09T07:54:13.969Z,333.18
2022-10-09T07:55:13.967Z,333.18
2022-10-09T07:56:13.975Z,96
2022-10-09T07:57:13.959Z,96
2022-10-09T07:58:13.959Z,81.88
2022-10-09T07:59:13.983Z,81.88
2022-10-09T08:00:13.974Z,81.88
2022-10-09T08:01:17.534Z,81.88
2022-10-09T08:02:14.011Z,81.88
2022-10-09T08:03:13.982Z,81.88
2022-10-09T08:04:13.968Z,81.88
2022-10-09T08:05:13.969Z,81.88
2022-10-09T08:06:13.952Z,111.53
2022-10-09T08:07:13.969Z,105.88
2022-10-09T08:08:13.965Z,105.88
2022-10-09T08:09:13.969Z,105.88
2022-10-09T08:10:13.965Z,105.88
2022-10-09T08:11:13.969Z,105.88
2022-10-09T08:12:13.969Z,105.88
2022-10-09T08:13:13.965Z,182.12
2022-10-09T08:14:18.153Z,135.53
2022-10-09T08:15:13.975Z,203.29
2022-10-09T08:16:14.004Z,192
2022-10-09T08:17:13.970Z,187.76
2022-10-09T08:18:13.983Z,258.35
2022-10-09T08:19:13.991Z,228.71
2022-10-09T08:20:13.971Z,177.88
2022-10-09T08:21:13.978Z,170.82
2022-10-09T08:22:13.972Z,199.06
2022-10-09T08:23:13.991Z,183.53
2022-10-09T08:24:13.971Z,176.47
2022-10-09T08:25:13.975Z,206.12
2022-10-09T08:26:13.978Z,204.71
2022-10-09T08:27:13.978Z,197.65
2022-10-09T08:28:14.037Z,187.76
2022-10-09T08:29:14.085Z,216
2022-10-09T08:30:13.988Z,190.59
2022-10-09T08:31:14.035Z,170.82
2022-10-09T08:32:13.984Z,132.71
2022-10-09T08:33:13.984Z,168
2022-10-09T08:34:13.985Z,230.12
2022-10-09T08:35:14.009Z,211.76
2022-10-09T08:36:13.996Z,159.53
2022-10-09T08:37:13.986Z,177.88
2022-10-09T08:38:25.545Z,211.76
2022-10-09T08:39:13.988Z,200.47
2022-10-09T08:40:13.996Z,211.76
2022-10-09T08:41:13.996Z,189.18
2022-10-09T08:42:13.989Z,189.18
2022-10-09T08:43:14.007Z,224.47
2022-10-09T08:44:13.995Z,230.12
2022-10-09T08:45:14.002Z,232.94
2022-10-09T08:46:17.153Z,232.94
2022-10-09T08:47:13.989Z,227.29
2022-10-09T08:48:13.996Z,224.47
2022-10-09T08:49:13.993Z,177.88
2022-10-09T08:50:14.001Z,177.88
2022-10-09T08:51:14.020Z,166.59
2022-10-09T08:52:14.000Z,162.35
2022-10-09T08:53:13.994Z,200.47
2022-10-09T08:54:13.995Z,107.29
2022-10-09T08:55:14.005Z,183.53
2022-10-09T08:56:14.002Z,187.76
2022-10-09T08:57:14.005Z,206.12
2022-10-09T08:58:13.999Z,200.47
2022-10-09T08:59:14.012Z,183.53
2022-10-09T09:00:14.015Z,231.53
2022-10-09T09:01:14.074Z,251.29
2022-10-09T09:02:14.005Z,213.18
2022-10-09T09:03:14.051Z,127.06
2022-10-09T09:04:14.002Z,127.06
2022-10-09T09:05:14.009Z,180.71
2022-10-09T09:06:14.001Z,177.88
2022-10-09T09:07:14.024Z,177.88
2022-10-09T09:08:14.009Z,127.06
2022-10-09T09:09:14.011Z,179.29
2022-10-09T09:10:14.010Z,193.41
2022-10-09T09:11:16.114Z,203.29
2022-10-09T09:12:14.003Z,227.29
2022-10-09T09:13:14.016Z,206.12
2022-10-09T09:14:14.008Z,201.88
2022-10-09T09:15:14.014Z,204.71
2022-10-09T09:16:14.035Z,237.18
2022-10-09T09:17:14.012Z,190.59
2022-10-09T09:18:14.002Z,182.12
2022-10-09T09:19:14.009Z,192
2022-10-09T09:20:14.012Z,194.82
2022-10-09T09:21:14.010Z,145.41
2022-10-09T09:22:14.013Z,213.18
2022-10-09T09:23:14.029Z,242.82
2022-10-09T09:24:14.011Z,200.47
2022-10-09T09:25:14.018Z,184.94
2022-10-09T09:26:14.020Z,199.06
2022-10-09T09:27:14.009Z,203.29
2022-10-09T09:28:14.117Z,192
2022-10-09T09:29:14.008Z,208.94
2022-10-09T09:30:14.005Z,208.94
2022-10-09T09:31:14.031Z,200.47
2022-10-09T09:32:14.014Z,149.65
2022-10-09T09:33:14.033Z,245.65
2022-10-09T09:34:14.010Z,206.12
2022-10-09T09:35:14.025Z,218.82
2022-10-09T09:36:14.019Z,192
2022-10-09T09:37:14.020Z,207.53
2022-10-09T09:38:14.021Z,196.24
2022-10-09T09:41:14.026Z,187.76
2022-10-09T09:42:14.020Z,199.06
2022-10-09T09:43:14.037Z,186.35
2022-10-09T09:44:14.027Z,153.88
2022-10-09T09:45:14.031Z,180.71
2022-10-09T09:46:14.126Z,196.24
2022-10-09T09:47:14.036Z,173.65
2022-10-09T09:48:14.025Z,176.47
2022-10-09T09:49:14.033Z,213.18
2022-10-09T09:50:28.751Z,210.35
2022-10-09T09:51:27.804Z,252.71
2022-10-09T09:52:14.040Z,192
2022-10-09T09:53:14.051Z,155.29
2022-10-09T09:54:14.044Z,153.88
2022-10-09T09:55:14.065Z,206.12
2022-10-09T09:56:14.036Z,177.88
2022-10-09T09:57:17.243Z,159.53
2022-10-09T09:58:14.031Z,196.24
2022-10-09T09:59:14.036Z,180.71
2022-10-09T10:00:14.039Z,31.06
2022-10-09T10:01:14.081Z,135.53
2022-10-09T10:02:14.101Z,151.06
2022-10-09T10:03:14.049Z,208.94
2022-10-09T10:04:14.047Z,141.18
2022-10-09T10:05:14.045Z,121.41
2022-10-09T10:06:14.063Z,210.35
2022-10-09T10:07:14.049Z,173.65
2022-10-09T10:08:14.040Z,182.12
2022-10-09T10:09:14.045Z,158.12
2022-10-09T10:10:14.048Z,120
2022-10-09T10:11:14.069Z,120
2022-10-09T10:12:14.051Z,120
2022-10-09T10:13:14.054Z,120
2022-10-09T10:14:14.050Z,120
2022-10-09T10:15:14.057Z,259.76
2022-10-09T10:16:14.130Z,207.53
2022-10-09T10:17:16.432Z,207.53
2022-10-09T10:18:14.070Z,138.35
2022-10-09T10:19:14.062Z,131.29
2022-10-09T10:20:14.063Z,153.88
2022-10-09T10:21:14.063Z,153.88
2022-10-09T10:22:14.066Z,159.53
2022-10-09T10:23:14.053Z,138.35
2022-10-09T10:24:14.061Z,302.12
2022-10-09T10:25:15.477Z,327.53
2022-10-09T10:26:14.071Z,11.29
2022-10-09T10:27:14.081Z,341.65
2022-10-09T10:28:14.089Z,64.94
2022-10-09T10:29:14.063Z,64.94
2022-10-09T10:30:14.062Z,64.94
2022-10-09T10:31:14.092Z,114.35
2022-10-09T10:32:14.071Z,120
2022-10-09T10:33:14.066Z,115.76
2022-10-09T10:34:14.097Z,55.06
2022-10-09T10:35:14.065Z,74.82
2022-10-09T10:36:14.078Z,74.82
2022-10-09T10:37:14.063Z,105.88
2022-10-09T10:38:14.077Z,121.41
2022-10-09T10:39:14.081Z,50.82
2022-10-09T10:40:14.072Z,62.12
2022-10-09T10:41:14.082Z,9.88
2022-10-09T10:42:14.082Z,100.24
2022-10-09T10:43:14.097Z,100.24
2022-10-09T10:44:14.080Z,100.24
2022-10-09T10:45:14.077Z,100.24
2022-10-09T10:46:14.099Z,128.47
2022-10-09T10:47:14.075Z,151.06
2022-10-09T10:48:14.076Z,144
2022-10-09T10:49:14.081Z,124.24
2022-10-09T10:50:14.079Z,97.41
2022-10-09T10:51:14.085Z,129.88
2022-10-09T10:52:14.090Z,110.12
2022-10-09T10:53:14.094Z,304.94
2022-10-09T10:54:14.090Z,285.18
2022-10-09T10:55:14.081Z,286.59
2022-10-09T10:56:14.090Z,223.06
2022-10-09T10:57:14.094Z,187.76
2022-10-09T10:58:14.109Z,180.71
2022-10-09T10:59:14.114Z,211.76
2022-10-09T11:00:14.096Z,142.59
2022-10-09T11:01:14.159Z,142.59
2022-10-09T11:02:14.091Z,120
2022-10-09T11:03:14.190Z,120
2022-10-09T11:04:14.098Z,187.76
2022-10-09T11:05:14.111Z,240
2022-10-09T11:06:14.100Z,242.82
2022-10-09T11:07:14.121Z,273.88
2022-10-09T11:08:14.096Z,273.88
2022-10-09T11:09:14.106Z,128.47
2022-10-09T11:10:14.109Z,83.29
2022-10-09T11:11:14.107Z,220.24
2022-10-09T11:12:19.813Z,131.29
2022-10-09T11:13:14.116Z,149.65
2022-10-09T11:14:17.895Z,182.12
2022-10-09T11:15:14.140Z,203.29
2022-10-09T11:16:14.137Z,230.12
2022-10-09T11:17:14.114Z,252.71
2022-10-09T11:18:14.110Z,204.71
2022-10-09T11:19:14.115Z,96
2022-10-09T11:20:14.119Z,153.88
2022-10-09T11:21:14.115Z,306.35
2022-10-09T11:22:14.124Z,192
2022-10-09T11:23:14.115Z,175.06
2022-10-09T11:24:14.146Z,169.41
2022-10-09T11:25:14.106Z,245.65
2022-10-09T11:26:14.124Z,183.53
2022-10-09T11:27:14.132Z,234.35
2022-10-09T11:28:14.177Z,299.29
2022-10-09T11:29:14.129Z,313.41
2022-10-09T11:30:14.127Z,240
2022-10-09T11:31:14.251Z,194.82
2022-10-09T11:32:14.127Z,218.82
2022-10-09T11:33:14.138Z,218.82
2022-10-09T11:34:14.118Z,197.65
2022-10-09T11:35:14.144Z,179.29
2022-10-09T11:36:14.116Z,184.94
2022-10-09T11:37:14.126Z,216
2022-10-09T11:38:14.129Z,208.94
2022-10-09T11:39:14.121Z,190.59
2022-10-09T11:40:14.152Z,179.29
2022-10-09T11:41:14.122Z,170.82
2022-10-09T11:42:14.134Z,127.06
2022-10-09T11:43:14.132Z,151.06
2022-10-09T11:44:14.122Z,136.94
2022-10-09T11:45:14.134Z,135.53
2022-10-09T11:46:14.153Z,251.29
2022-10-09T11:47:14.158Z,268.24
2022-10-09T11:48:14.129Z,288
2022-10-09T11:49:14.127Z,232.94
2022-10-09T11:50:14.231Z,220.24
2022-10-09T11:51:14.135Z,240
2022-10-09T11:52:14.139Z,262.59
2022-10-09T11:53:14.126Z,278.12
2022-10-09T11:54:14.136Z,285.18
2022-10-09T11:55:14.130Z,292.24
2022-10-09T11:56:14.133Z,292.24
2022-10-09T11:57:15.406Z,249.88
2022-10-09T11:58:14.142Z,272.47
2022-10-09T11:59:14.137Z,272.47
2022-10-09T12:00:14.196Z,272.47
2022-10-09T12:01:14.222Z,272.47
2022-10-09T12:02:14.227Z,272.47
2022-10-09T12:03:14.159Z,272.47
2022-10-09T12:04:14.151Z,272.47
2022-10-09T12:05:14.148Z,232.94
2022-10-09T12:06:14.141Z,265.41
2022-10-09T12:07:14.141Z,271.06
2022-10-09T12:08:15.494Z,269.65
2022-10-09T12:09:14.137Z,302.12
2022-10-09T12:10:14.192Z,273.88
2022-10-09T12:11:14.144Z,286.59
2022-10-09T12:12:14.146Z,296.47
2022-10-09T12:13:14.154Z,309.18
2022-10-09T12:14:17.100Z,231.53
2022-10-09T12:15:14.143Z,172.24
2022-10-09T12:16:14.174Z,192
2022-10-09T12:17:14.153Z,175.06
2022-10-09T12:18:14.151Z,172.24
2022-10-09T12:19:14.177Z,218.82
2022-10-09T12:20:14.204Z,218.82
2022-10-09T12:21:14.154Z,203.29
2022-10-09T12:22:14.155Z,165.18
2022-10-09T12:23:26.031Z,165.18
2022-10-09T12:24:14.156Z,165.18
2022-10-09T12:25:14.157Z,201.88
2022-10-09T12:26:14.175Z,186.35
2022-10-09T12:27:14.162Z,227.29
2022-10-09T12:28:14.204Z,210.35
2022-10-09T12:29:14.165Z,199.06
2022-10-09T12:30:14.337Z,166.59
2022-10-09T12:31:14.219Z,231.53
2022-10-09T12:32:14.170Z,196.24
2022-10-09T12:33:14.179Z,186.35
2022-10-09T12:34:14.170Z,231.53
2022-10-09T12:35:14.196Z,231.53
2022-10-09T12:36:14.177Z,192
2022-10-09T12:37:14.172Z,180.71
2022-10-09T12:38:14.173Z,180.71